createdAt,value
2018-02-14T00:01:03.256Z,1.85
2018-02-14T00:03:31.644Z,1.94
2018-02-14T00:05:59.966Z,1.72
2018-02-14T00:08:29.041Z,1.93
2018-02-14T00:10:57.411Z,1.98
2018-02-14T00:13:26.680Z,2.04
2018-02-14T00:15:55.421Z,2.00
2018-02-14T00:18:23.796Z,1.82
2018-02-14T00:20:52.493Z,1.77
2018-02-14T00:23:20.872Z,1.92
2018-02-14T00:25:49.248Z,1.81
2018-02-14T00:28:17.547Z,1.73
2018-02-14T00:30:46.903Z,1.70
2018-02-14T00:33:16.006Z,1.79
2018-02-14T00:35:45.241Z,1.68
2018-02-14T00:38:13.573Z,1.59
2018-02-14T00:40:42.879Z,1.71
2018-02-14T00:43:12.083Z,1.53
2018-02-14T00:45:40.611Z,1.68
2018-02-14T00:48:09.917Z,1.59
2018-02-14T00:50:38.231Z,1.59
2018-02-14T00:53:07.863Z,1.59
2018-02-14T00:55:37.216Z,1.66
2018-02-14T00:58:05.820Z,1.69
2018-02-14T01:00:34.670Z,1.70
2018-02-14T01:03:02.995Z,1.61
2018-02-14T01:05:31.347Z,1.76
2018-02-14T01:07:59.713Z,1.80
2018-02-14T01:10:28.123Z,1.91
2018-02-14T01:12:57.430Z,1.92
2018-02-14T01:15:27.037Z,1.80
2018-02-14T01:17:55.712Z,1.89
2018-02-14T01:20:29.653Z,1.79
2018-02-14T01:22:58.755Z,1.82
2018-02-14T01:25:27.096Z,1.64
2018-02-14T01:27:55.450Z,1.76
2018-02-14T01:30:23.761Z,1.75
2018-02-14T01:32:52.080Z,1.58
2018-02-14T01:35:20.915Z,1.62
2018-02-14T01:37:49.248Z,1.73
2018-02-14T01:40:17.591Z,1.73
2018-02-14T01:42:46.241Z,1.74
2018-02-14T01:45:14.608Z,1.64
2018-02-14T01:47:42.948Z,1.62
2018-02-14T01:50:12.098Z,1.57
2018-02-14T01:52:40.443Z,1.40
2018-02-14T01:55:08.799Z,1.58
2018-02-14T01:57:38.419Z,1.66
2018-02-14T02:00:07.501Z,1.37
2018-02-14T02:02:35.838Z,1.37
2018-02-14T02:05:04.254Z,1.44
2018-02-14T02:07:32.581Z,1.43
2018-02-14T02:10:00.932Z,1.40
2018-02-14T02:12:30.084Z,1.30
2018-02-14T02:14:58.502Z,1.36
2018-02-14T02:17:26.860Z,1.24
2018-02-14T02:19:55.566Z,1.38
2018-02-14T02:22:23.895Z,1.41
2018-02-14T02:24:52.210Z,1.24
2018-02-14T02:27:20.552Z,1.40
2018-02-14T02:29:48.904Z,1.47
2018-02-14T02:32:17.401Z,1.59
2018-02-14T02:34:45.749Z,1.53
2018-02-14T02:37:14.965Z,1.43
2018-02-14T02:42:55.721Z,1.28
2018-02-14T02:45:24.065Z,1.31
2018-02-14T02:47:52.401Z,1.26
2018-02-14T02:50:20.960Z,1.44
2018-02-14T02:52:49.539Z,1.34
2018-02-14T02:55:17.837Z,1.24
2018-02-14T02:57:47.272Z,1.39
2018-02-14T03:00:15.980Z,1.43
2018-02-14T03:02:44.610Z,1.40
2018-02-14T03:05:13.136Z,1.16
2018-02-14T03:07:41.623Z,1.19
2018-02-14T03:10:10.236Z,1.06
2018-02-14T03:12:38.596Z,1.02
2018-02-14T03:15:07.057Z,1.10
2018-02-14T03:17:35.519Z,1.13
2018-02-14T03:20:03.849Z,1.11
2018-02-14T03:22:32.453Z,1.07
2018-02-14T03:25:00.783Z,0.89
2018-02-14T03:27:29.115Z,0.89
2018-02-14T03:29:58.354Z,0.75
2018-02-14T03:32:26.812Z,0.71
2018-02-14T03:34:55.255Z,0.61
2018-02-14T03:37:23.600Z,0.60
2018-02-14T03:39:51.924Z,0.50
2018-02-14T03:42:20.250Z,0.54
2018-02-14T03:44:49.216Z,0.57
2018-02-14T03:47:17.508Z,0.56
2018-02-14T03:49:45.846Z,0.44
2018-02-14T03:52:14.227Z,0.50
2018-02-14T03:54:42.550Z,0.49
2018-02-14T03:57:10.858Z,0.46
2018-02-14T03:59:39.234Z,0.45
2018-02-14T04:02:07.583Z,0.40
2018-02-14T04:04:35.905Z,0.52
2018-02-14T04:07:04.628Z,0.48
2018-02-14T04:09:33.722Z,0.52
2018-02-14T04:12:02.824Z,0.48
2018-02-14T04:14:31.962Z,0.65
2018-02-14T04:17:00.304Z,0.40
2018-02-14T04:19:28.630Z,0.27
2018-02-14T04:21:56.961Z,0.35
2018-02-14T04:24:26.059Z,0.01
2018-02-14T04:26:55.126Z,0.10
2018-02-14T04:29:23.648Z,0.16
2018-02-14T04:31:52.043Z,0.13
2018-02-14T04:34:20.346Z,0.18
2018-02-14T04:36:48.665Z,-0.10
2018-02-14T04:39:17.029Z,-0.57
2018-02-14T04:41:46.129Z,-0.59
2018-02-14T04:44:14.654Z,-0.71
2018-02-14T04:46:42.999Z,-0.69
2018-02-14T04:49:12.103Z,-0.55
2018-02-14T04:51:41.684Z,-0.58
2018-02-14T04:54:10.013Z,-0.49
2018-02-14T04:56:38.388Z,-0.31
2018-02-14T04:59:06.750Z,-0.35
2018-02-14T05:01:35.825Z,-0.15
2018-02-14T05:04:04.153Z,-0.09
2018-02-14T05:06:32.484Z,0.01
2018-02-14T05:09:01.559Z,0.01
2018-02-14T05:11:29.897Z,-0.14
2018-02-14T05:13:58.336Z,-0.06
2018-02-14T05:16:26.666Z,-0.17
2018-02-14T05:18:55.045Z,-0.11
2018-02-14T05:21:23.519Z,-0.30
2018-02-14T05:23:51.845Z,-0.25
2018-02-14T05:26:20.183Z,-0.16
2018-02-14T05:28:48.543Z,-0.04
2018-02-14T05:31:16.864Z,-0.10
2018-02-14T05:33:45.957Z,-0.12
2018-02-14T05:36:14.702Z,-0.19
2018-02-14T05:38:43.047Z,-0.14
2018-02-14T05:41:11.382Z,-0.11
2018-02-14T05:43:39.713Z,0.00
2018-02-14T05:46:08.819Z,-0.10
2018-02-14T05:48:37.923Z,-0.11
2018-02-14T05:51:06.256Z,-0.10
2018-02-14T05:53:34.633Z,-0.09
2018-02-14T05:56:02.940Z,-0.04
2018-02-14T05:58:31.487Z,-0.10
2018-02-14T06:00:59.819Z,-0.16
2018-02-14T06:03:28.128Z,-0.25
2018-02-14T06:05:56.476Z,-0.27
2018-02-14T06:08:25.584Z,-0.27
2018-02-14T06:10:53.914Z,-0.30
2018-02-14T06:13:22.275Z,-0.23
2018-02-14T06:15:50.644Z,-0.21
2018-02-14T06:18:18.965Z,-0.32
2018-02-14T06:20:48.469Z,-0.18
2018-02-14T06:23:16.793Z,-0.19
2018-02-14T06:25:45.109Z,-0.06
2018-02-14T06:28:13.479Z,-0.16
2018-02-14T06:30:41.826Z,-0.21
2018-02-14T06:33:10.148Z,-0.25
2018-02-14T06:35:38.636Z,-0.05
2018-02-14T06:38:06.986Z,-0.08
2018-02-14T06:40:35.294Z,0.01
2018-02-14T06:43:03.936Z,-0.04
2018-02-14T06:45:32.295Z,-0.06
2018-02-14T06:48:00.640Z,-0.02
2018-02-14T06:50:29.008Z,-0.04
2018-02-14T06:52:57.349Z,-0.09
2018-02-14T06:55:25.714Z,0.13
2018-02-14T06:57:54.028Z,0.17
2018-02-14T07:00:22.325Z,0.16
2018-02-14T07:02:50.676Z,0.21
2018-02-14T07:05:19.516Z,0.29
2018-02-14T07:07:47.897Z,0.34
2018-02-14T07:10:16.246Z,1.10
2018-02-14T07:12:44.593Z,2.00
2018-02-14T07:15:12.937Z,3.07
2018-02-14T07:17:42.049Z,4.02
2018-02-14T07:20:10.538Z,4.25
2018-02-14T07:22:39.069Z,4.95
2018-02-14T07:25:07.411Z,5.79
2018-02-14T07:27:36.292Z,6.54
2018-02-14T07:30:04.600Z,7.30
2018-02-14T07:32:32.925Z,7.18
2018-02-14T07:35:02.013Z,8.21
2018-02-14T07:37:31.130Z,8.39
2018-02-14T07:39:59.443Z,8.54
2018-02-14T07:42:28.043Z,9.07
2018-02-14T07:44:56.373Z,10.04
2018-02-14T07:47:24.684Z,10.86
2018-02-14T07:49:53.226Z,11.60
2018-02-14T07:52:21.556Z,11.89
2018-02-14T07:54:49.863Z,12.63
2018-02-14T07:57:18.960Z,13.12
2018-02-14T07:59:48.054Z,13.29
2018-02-14T08:02:17.171Z,14.63
2018-02-14T08:04:45.534Z,15.41
2018-02-14T08:07:13.868Z,15.21
2018-02-14T08:09:42.957Z,14.39
2018-02-14T08:12:11.856Z,14.58
2018-02-14T08:14:40.210Z,13.56
2018-02-14T08:17:08.550Z,13.92
2018-02-14T08:19:36.927Z,14.61
2018-02-14T08:22:05.287Z,15.19
2018-02-14T08:24:33.609Z,15.20
2018-02-14T08:27:01.991Z,16.14
2018-02-14T08:29:30.342Z,16.67
2018-02-14T08:31:58.667Z,17.34
2018-02-14T08:34:27.320Z,18.35
2018-02-14T08:36:55.784Z,17.37
2018-02-14T08:39:25.208Z,18.01
2018-02-14T08:41:54.304Z,19.41
2018-02-14T08:44:23.384Z,19.05
2018-02-14T08:46:51.720Z,19.41
2018-02-14T08:49:20.087Z,19.38
2018-02-14T08:51:48.415Z,20.18
2018-02-14T08:54:16.777Z,20.89
2018-02-14T08:56:45.490Z,20.08
2018-02-14T08:59:13.816Z,19.57
2018-02-14T09:01:42.131Z,18.10
2018-02-14T09:04:10.498Z,16.88
2018-02-14T09:06:38.861Z,19.02
2018-02-14T09:09:07.188Z,19.52
2018-02-14T09:11:36.284Z,19.73
2018-02-14T09:14:05.376Z,19.02
2018-02-14T09:16:34.466Z,20.14
2018-02-14T09:19:04.068Z,18.16
2018-02-14T09:21:32.487Z,19.52
2018-02-14T09:24:00.831Z,18.45
2018-02-14T09:26:29.214Z,20.40
2018-02-14T09:28:57.553Z,18.95
2018-02-14T09:31:25.905Z,21.03
2018-02-14T09:33:54.277Z,21.64
2018-02-14T09:36:22.605Z,23.01
2018-02-14T09:38:50.935Z,22.53
2018-02-14T09:41:19.380Z,19.54
2018-02-14T09:43:47.721Z,20.77
2018-02-14T09:46:16.198Z,19.89
2018-02-14T09:48:44.575Z,21.39
2018-02-14T09:51:12.911Z,21.96
2018-02-14T09:53:42.001Z,20.22
2018-02-14T09:56:11.108Z,20.68
2018-02-14T09:58:39.420Z,19.84
2018-02-14T10:01:07.776Z,20.26
2018-02-14T10:03:37.384Z,20.07
2018-02-14T10:06:05.723Z,20.46
2018-02-14T10:08:35.826Z,21.14
2018-02-14T10:11:04.145Z,21.26
2018-02-14T10:13:33.243Z,21.31
2018-02-14T10:16:02.427Z,22.10
2018-02-14T10:18:30.747Z,21.50
2018-02-14T10:20:59.061Z,20.66
2018-02-14T10:23:27.939Z,22.16
2018-02-14T10:25:56.258Z,21.46
2018-02-14T10:28:25.362Z,20.33
2018-02-14T10:30:54.986Z,21.12
2018-02-14T10:33:23.339Z,23.06
2018-02-14T10:35:51.683Z,21.59
2018-02-14T10:38:20.022Z,20.78
2018-02-14T10:40:48.379Z,20.95
2018-02-14T10:43:17.497Z,20.73
2018-02-14T10:45:47.105Z,19.92
2018-02-14T10:48:15.453Z,20.51
2018-02-14T10:50:43.833Z,21.71
2018-02-14T10:53:12.594Z,19.37
2018-02-14T10:55:40.983Z,19.51
2018-02-14T10:58:09.311Z,19.22
2018-02-14T11:00:43.208Z,18.12
2018-02-14T11:03:17.969Z,19.68
2018-02-14T11:08:54.324Z,19.82
2018-02-14T11:11:23.825Z,19.63
2018-02-14T11:13:52.928Z,19.98
2018-02-14T11:16:22.101Z,19.49
2018-02-14T11:18:50.705Z,20.00
2018-02-14T11:21:19.830Z,19.73
2018-02-14T11:23:48.210Z,19.96
2018-02-14T11:26:16.554Z,21.89
2018-02-14T11:28:45.691Z,20.37
2018-02-14T11:31:14.071Z,20.25
2018-02-14T11:33:42.720Z,20.20
2018-02-14T11:36:11.122Z,19.58
2018-02-14T11:38:39.470Z,19.09
2018-02-14T11:41:08.622Z,21.60
2018-02-14T11:43:36.991Z,20.23
2018-02-14T11:46:05.322Z,18.31
2018-02-14T11:48:33.689Z,18.43
2018-02-14T11:51:02.842Z,19.05
2018-02-14T11:53:31.427Z,18.45
2018-02-14T11:56:00.539Z,19.61
2018-02-14T11:58:28.860Z,18.59
2018-02-14T12:00:57.199Z,18.71
2018-02-14T12:03:25.587Z,18.98
2018-02-14T12:05:53.969Z,19.23
2018-02-14T12:08:22.526Z,18.65
2018-02-14T12:10:50.918Z,19.60
2018-02-14T12:13:19.366Z,19.34
2018-02-14T12:15:47.747Z,20.40
2018-02-14T12:18:16.734Z,20.08
2018-02-14T12:20:45.835Z,18.83
2018-02-14T12:23:14.967Z,19.01
2018-02-14T12:25:43.357Z,20.33
2018-02-14T12:28:11.699Z,21.41
2018-02-14T12:30:40.097Z,19.79
2018-02-14T12:33:08.957Z,18.74
2018-02-14T12:35:37.310Z,20.03
2018-02-14T12:38:06.441Z,18.59
2018-02-14T12:40:34.863Z,18.68
2018-02-14T12:43:03.189Z,19.00
2018-02-14T12:45:32.309Z,18.84
2018-02-14T12:48:00.700Z,18.31
2018-02-14T12:50:29.092Z,18.94
2018-02-14T12:52:57.457Z,18.50
2018-02-14T12:55:25.837Z,18.64
2018-02-14T12:57:54.165Z,19.26
2018-02-14T13:00:22.504Z,16.79
2018-02-14T13:02:51.338Z,17.80
2018-02-14T13:05:19.664Z,18.36
2018-02-14T13:07:48.009Z,18.78
2018-02-14T13:10:17.397Z,17.05
2018-02-14T13:12:46.491Z,16.44
2018-02-14T13:15:14.853Z,17.88
2018-02-14T13:17:43.206Z,17.70
2018-02-14T13:20:11.528Z,17.28
2018-02-14T13:22:40.673Z,16.75
2018-02-14T13:25:09.830Z,16.99
2018-02-14T13:27:38.960Z,17.28
2018-02-14T13:30:07.348Z,17.43
2018-02-14T13:32:35.726Z,16.97
2018-02-14T13:35:04.105Z,17.32
2018-02-14T13:37:32.481Z,17.14
2018-02-14T13:40:00.901Z,19.19
2018-02-14T13:42:29.239Z,20.06
2018-02-14T13:44:57.577Z,19.53
2018-02-14T13:47:27.240Z,16.83
2018-02-14T13:49:55.627Z,16.07
2018-02-14T13:52:24.024Z,15.49
2018-02-14T13:54:52.389Z,15.97
2018-02-14T13:57:20.744Z,14.77
2018-02-14T13:59:49.079Z,15.27
2018-02-14T14:02:17.553Z,15.25
2018-02-14T14:04:45.900Z,15.32
2018-02-14T14:07:14.281Z,16.28
2018-02-14T14:09:42.930Z,15.92
2018-02-14T14:12:11.282Z,14.90
2018-02-14T14:14:39.814Z,15.12
2018-02-14T14:17:08.194Z,16.41
2018-02-14T14:19:36.536Z,15.90
2018-02-14T14:22:05.663Z,15.75
2018-02-14T14:24:34.509Z,15.39
2018-02-14T14:27:02.853Z,14.57
2018-02-14T14:29:31.221Z,13.45
2018-02-14T14:31:59.840Z,13.35
2018-02-14T14:34:28.212Z,13.01
2018-02-14T14:36:56.548Z,13.42
2018-02-14T14:39:24.928Z,13.83
2018-02-14T14:41:53.295Z,13.46
2018-02-14T14:44:21.673Z,13.14
2018-02-14T14:46:50.024Z,12.69
2018-02-14T14:49:18.356Z,12.16
2018-02-14T14:51:46.703Z,12.62
2018-02-14T14:54:15.349Z,12.48
2018-02-14T14:56:45.298Z,12.63
2018-02-14T14:59:14.434Z,12.39
2018-02-14T15:01:43.068Z,13.11
2018-02-14T15:04:12.192Z,12.33
2018-02-14T15:06:40.523Z,12.25
2018-02-14T15:09:08.911Z,12.28
2018-02-14T15:11:37.322Z,12.28
2018-02-14T15:14:05.628Z,12.32
2018-02-14T15:16:34.493Z,12.25
2018-02-14T15:19:02.824Z,12.60
2018-02-14T15:21:31.133Z,11.83
2018-02-14T15:24:00.303Z,11.91
2018-02-14T15:26:28.667Z,11.16
2018-02-14T15:28:57.765Z,10.40
2018-02-14T15:31:26.131Z,10.25
2018-02-14T15:33:54.457Z,10.96
2018-02-14T15:36:22.789Z,10.35
2018-02-14T15:38:51.673Z,10.81
2018-02-14T15:41:20.119Z,10.99
2018-02-14T15:43:48.443Z,10.59
2018-02-14T15:46:16.863Z,10.76
2018-02-14T15:48:45.168Z,10.06
2018-02-14T15:51:13.466Z,9.75
2018-02-14T15:53:41.816Z,9.32
2018-02-14T15:56:10.896Z,9.03
2018-02-14T15:58:39.431Z,8.59
2018-02-14T16:01:08.144Z,8.54
2018-02-14T16:03:36.438Z,8.41
2018-02-14T16:06:04.769Z,8.18
2018-02-14T16:08:33.094Z,7.90
2018-02-14T16:11:01.433Z,7.59
2018-02-14T16:13:30.445Z,7.51
2018-02-14T16:15:59.252Z,7.35
2018-02-14T16:18:27.552Z,7.09
2018-02-14T16:20:55.925Z,7.06
2018-02-14T16:23:25.725Z,7.07
2018-02-14T16:25:54.070Z,6.93
2018-02-14T16:28:22.435Z,6.88
2018-02-14T16:30:50.807Z,6.74
2018-02-14T16:33:19.145Z,6.72
2018-02-14T16:35:48.251Z,6.69
2018-02-14T16:38:17.369Z,6.55
2018-02-14T16:40:45.764Z,6.43
2018-02-14T16:43:14.096Z,6.40
2018-02-14T16:45:43.522Z,6.32
2018-02-14T16:48:11.870Z,6.48
2018-02-14T16:50:40.223Z,6.32
2018-02-14T16:53:09.179Z,6.12
2018-02-14T16:55:37.557Z,6.30
2018-02-14T16:58:06.655Z,6.12
2018-02-14T17:00:35.029Z,5.70
2018-02-14T17:03:03.384Z,5.76
2018-02-14T17:05:31.718Z,5.95
2018-02-14T17:08:00.274Z,5.77
2018-02-14T17:10:28.610Z,5.88
2018-02-14T17:12:56.950Z,5.75
2018-02-14T17:15:25.311Z,5.84
2018-02-14T17:17:53.659Z,5.66
2018-02-14T17:20:22.021Z,5.63
2018-02-14T17:22:50.434Z,5.52
2018-02-14T17:25:18.757Z,5.33
2018-02-14T17:27:47.120Z,5.31
2018-02-14T17:30:16.184Z,5.19
2018-02-14T17:32:44.513Z,5.12
2018-02-14T17:35:12.872Z,5.33
2018-02-14T17:37:41.225Z,5.30
2018-02-14T17:40:09.557Z,5.38
2018-02-14T17:42:37.907Z,5.27
2018-02-14T17:45:06.265Z,5.27
2018-02-14T17:47:35.366Z,5.37
2018-02-14T17:50:03.724Z,5.31
2018-02-14T17:52:33.173Z,5.22
2018-02-14T17:55:01.812Z,5.15
2018-02-14T17:57:30.915Z,5.14
2018-02-14T18:00:00.091Z,5.08
2018-02-14T18:02:29.189Z,5.06
2018-02-14T18:04:57.532Z,4.91
2018-02-14T18:07:26.181Z,4.80
2018-02-14T18:09:54.545Z,4.72
2018-02-14T18:12:22.907Z,4.73
2018-02-14T18:14:51.642Z,4.79
2018-02-14T18:17:19.987Z,4.86
2018-02-14T18:19:48.525Z,4.72
2018-02-14T18:22:16.895Z,4.80
2018-02-14T18:24:45.228Z,4.89
2018-02-14T18:27:13.643Z,4.91
2018-02-14T18:29:42.017Z,4.80
2018-02-14T18:32:10.351Z,4.74
2018-02-14T18:34:38.717Z,4.75
2018-02-14T18:37:07.257Z,4.57
2018-02-14T18:39:36.357Z,4.31
2018-02-14T18:42:04.732Z,4.33
2018-02-14T18:44:33.353Z,4.45
2018-02-14T18:47:01.697Z,4.40
2018-02-14T18:49:30.134Z,4.34
2018-02-14T18:51:58.456Z,4.16
2018-02-14T18:54:27.543Z,4.23
2018-02-14T18:56:56.659Z,4.06
2018-02-14T18:59:25.825Z,4.29
2018-02-14T19:01:54.364Z,4.11
2018-02-14T19:04:22.695Z,3.73
2018-02-14T19:06:52.949Z,3.72
2018-02-14T19:09:21.269Z,3.72
2018-02-14T19:11:50.368Z,3.87
2018-02-14T19:14:18.850Z,3.91
2018-02-14T19:16:47.191Z,3.68
2018-02-14T19:19:15.622Z,3.71
2018-02-14T19:21:45.686Z,3.65
2018-02-14T19:24:14.058Z,3.70
2018-02-14T19:26:42.402Z,3.53
2018-02-14T19:29:11.589Z,3.62
2018-02-14T19:31:39.985Z,3.48
2018-02-14T19:34:08.313Z,3.49
2018-02-14T19:36:36.691Z,3.63
2018-02-14T19:39:05.036Z,3.58
2018-02-14T19:41:33.446Z,3.55
2018-02-14T19:44:02.092Z,3.41
2018-02-14T19:46:30.685Z,3.43
2018-02-14T19:48:59.118Z,3.34
2018-02-14T19:51:27.627Z,3.46
2018-02-14T19:53:55.979Z,3.55
2018-02-14T19:56:24.301Z,3.31
2018-02-14T19:58:53.085Z,3.20
2018-02-14T20:01:21.464Z,3.35
2018-02-14T20:03:50.635Z,3.21
2018-02-14T20:06:19.355Z,3.23
2018-02-14T20:08:47.718Z,3.24
2018-02-14T20:11:16.889Z,3.12
2018-02-14T20:13:45.292Z,3.34
2018-02-14T20:16:14.408Z,3.24
2018-02-14T20:18:42.893Z,3.10
2018-02-14T20:21:12.121Z,3.24
2018-02-14T20:23:40.623Z,3.06
2018-02-14T20:26:08.943Z,2.87
2018-02-14T20:28:38.265Z,2.97
2018-02-14T20:31:06.604Z,3.12
2018-02-14T20:33:34.932Z,3.17
2018-02-14T20:36:03.638Z,2.96
2018-02-14T20:38:31.937Z,2.85
2018-02-14T20:41:00.280Z,2.89
2018-02-14T20:43:30.070Z,2.91
2018-02-14T20:45:58.412Z,3.21
2018-02-14T20:48:26.858Z,3.10
2018-02-14T20:50:56.268Z,3.00
2018-02-14T20:53:24.602Z,3.07
2018-02-14T20:55:52.950Z,3.06
2018-02-14T20:58:21.291Z,2.94
2018-02-14T21:00:49.602Z,2.82
2018-02-14T21:03:17.953Z,2.86
2018-02-14T21:05:46.309Z,2.78
2018-02-14T21:08:14.679Z,2.60
2018-02-14T21:10:43.017Z,2.59
2018-02-14T21:13:11.472Z,2.63
2018-02-14T21:15:39.869Z,2.75
2018-02-14T21:18:08.178Z,2.71
2018-02-14T21:20:37.331Z,2.70
2018-02-14T21:23:05.691Z,2.70
2018-02-14T21:25:34.107Z,2.66
2018-02-14T21:28:02.470Z,2.56
2018-02-14T21:30:30.916Z,2.58
2018-02-14T21:32:59.239Z,2.63
2018-02-14T21:35:27.684Z,2.53
2018-02-14T21:37:55.993Z,2.62
2018-02-14T21:40:24.331Z,2.54
2018-02-14T21:42:52.708Z,2.51
2018-02-14T21:45:21.100Z,2.46
2018-02-14T21:47:49.428Z,2.66
2018-02-14T21:50:17.778Z,2.46
2018-02-14T21:52:46.144Z,2.61
2018-02-14T21:55:14.476Z,2.54
2018-02-14T21:57:43.200Z,2.58
2018-02-14T22:00:11.539Z,2.58
2018-02-14T22:02:39.867Z,2.62
2018-02-14T22:05:08.224Z,2.58
2018-02-14T22:07:37.314Z,2.57
2018-02-14T22:10:06.406Z,2.60
2018-02-14T22:12:35.537Z,2.58
2018-02-14T22:15:03.887Z,2.80
2018-02-14T22:17:32.256Z,2.75
2018-02-14T22:20:01.712Z,2.70
2018-02-14T22:22:30.056Z,2.62
2018-02-14T22:24:59.144Z,2.54
2018-02-14T22:27:28.288Z,2.55
2018-02-14T22:29:56.624Z,2.58
2018-02-14T22:32:24.941Z,2.56
2018-02-14T22:34:53.265Z,2.50
2018-02-14T22:37:22.334Z,2.46
2018-02-14T22:39:50.675Z,2.43
2018-02-14T22:42:19.109Z,2.56
2018-02-14T22:44:47.456Z,2.34
2018-02-14T22:47:15.825Z,2.51
2018-02-14T22:49:44.184Z,2.60
2018-02-14T22:52:12.523Z,2.40
2018-02-14T22:54:40.848Z,2.44
2018-02-14T22:57:09.646Z,2.45
2018-02-14T22:59:37.978Z,2.38
2018-02-14T23:02:07.061Z,2.45
2018-02-14T23:04:35.768Z,2.48
2018-02-14T23:07:04.843Z,2.48
2018-02-14T23:09:33.280Z,2.43
2018-02-14T23:12:01.628Z,2.22
2018-02-14T23:14:30.278Z,2.40
2018-02-14T23:16:58.672Z,2.50
2018-02-14T23:19:27.348Z,2.50
2018-02-14T23:21:55.693Z,2.52
2018-02-14T23:24:24.007Z,2.49
2018-02-14T23:26:52.720Z,2.46
2018-02-14T23:29:21.816Z,2.32
2018-02-14T23:31:51.307Z,2.38
2018-02-14T23:34:20.244Z,2.41
2018-02-14T23:36:48.739Z,2.49
2018-02-14T23:39:17.069Z,2.69
2018-02-14T23:41:46.243Z,2.56
2018-02-14T23:44:14.634Z,2.43
2018-02-14T23:46:42.992Z,2.57
2018-02-14T23:49:11.732Z,2.50
2018-02-14T23:51:40.060Z,2.40
2018-02-14T23:54:08.411Z,2.49
2018-02-14T23:56:36.769Z,2.54
2018-02-14T23:59:05.122Z,2.54
